sensor_id;sensor_type;location;lat;lon;timestamp;pressure;altitude;pressure_sealevel;temperature;humidity
71795;BME280;59641;45.188;5.712;2023-08-21T00:01:56;99561.13;;;31.70;34.29
71795;BME280;59641;45.188;5.712;2023-08-21T00:04:21;99558.63;;;31.65;34.28
71795;BME280;59641;45.188;5.712;2023-08-21T00:06:47;99554.50;;;31.58;34.70
71795;BME280;59641;45.188;5.712;2023-08-21T00:09:12;99558.81;;;31.56;34.77
71795;BME280;59641;45.188;5.712;2023-08-21T00:11:37;99560.75;;;31.55;34.95
71795;BME280;59641;45.188;5.712;2023-08-21T00:14:03;99566.66;;;31.54;34.92
71795;BME280;59641;45.188;5.712;2023-08-21T00:16:28;99558.25;;;31.50;34.92
71795;BME280;59641;45.188;5.712;2023-08-21T00:18:54;99554.66;;;31.50;35.51
71795;BME280;59641;45.188;5.712;2023-08-21T00:21:20;99554.66;;;31.50;35.26
71795;BME280;59641;45.188;5.712;2023-08-21T00:23:45;99558.16;;;31.47;35.27
71795;BME280;59641;45.188;5.712;2023-08-21T00:26:11;99554.94;;;31.45;35.57
71795;BME280;59641;45.188;5.712;2023-08-21T00:28:37;99549.38;;;31.45;35.50
71795;BME280;59641;45.188;5.712;2023-08-21T00:31:03;99559.69;;;31.44;35.73
71795;BME280;59641;45.188;5.712;2023-08-21T00:33:31;99554.13;;;31.44;35.30
71795;BME280;59641;45.188;5.712;2023-08-21T00:35:57;99561.19;;;31.41;35.41
71795;BME280;59641;45.188;5.712;2023-08-21T00:38:22;99554.25;;;31.35;35.57
71795;BME280;59641;45.188;5.712;2023-08-21T00:40:48;99553.00;;;31.33;35.29
71795;BME280;59641;45.188;5.712;2023-08-21T00:43:14;99552.47;;;31.27;35.40
71795;BME280;59641;45.188;5.712;2023-08-21T00:45:41;99562.28;;;31.25;36.09
71795;BME280;59641;45.188;5.712;2023-08-21T00:48:08;99564.59;;;31.23;35.99
71795;BME280;59641;45.188;5.712;2023-08-21T00:50:33;99563.78;;;31.22;35.66
71795;BME280;59641;45.188;5.712;2023-08-21T00:52:59;99564.94;;;31.21;36.05
71795;BME280;59641;45.188;5.712;2023-08-21T00:55:24;99568.44;;;31.18;35.80
71795;BME280;59641;45.188;5.712;2023-08-21T00:57:50;99570.75;;;31.16;35.73
71795;BME280;59641;45.188;5.712;2023-08-21T01:00:15;99566.38;;;31.15;35.63
71795;BME280;59641;45.188;5.712;2023-08-21T01:02:40;99568.69;;;31.13;36.11
71795;BME280;59641;45.188;5.712;2023-08-21T01:05:07;99567.06;;;31.12;35.76
71795;BME280;59641;45.188;5.712;2023-08-21T01:07:38;99571.81;;;31.11;36.03
71795;BME280;59641;45.188;5.712;2023-08-21T01:10:22;99568.22;;;31.11;35.76
71795;BME280;59641;45.188;5.712;2023-08-21T01:15:50;99567.13;;;30.99;35.75
71795;BME280;59641;45.188;5.712;2023-08-21T01:18:16;99568.63;;;30.97;35.98
71795;BME280;59641;45.188;5.712;2023-08-21T01:20:43;99574.09;;;30.93;35.55
71795;BME280;59641;45.188;5.712;2023-08-21T01:23:08;99574.75;;;30.90;36.11
71795;BME280;59641;45.188;5.712;2023-08-21T01:25:34;99581.00;;;30.87;36.20
71795;BME280;59641;45.188;5.712;2023-08-21T01:27:59;99582.97;;;30.87;35.91
71795;BME280;59641;45.188;5.712;2023-08-21T01:30:26;99582.53;;;30.85;36.17
71795;BME280;59641;45.188;5.712;2023-08-21T01:33:00;99585.63;;;30.83;35.78
71795;BME280;59641;45.188;5.712;2023-08-21T01:35:28;99583.53;;;30.80;35.91
71795;BME280;59641;45.188;5.712;2023-08-21T01:37:55;99595.31;;;30.77;36.37
71795;BME280;59641;45.188;5.712;2023-08-21T01:40:24;99590.13;;;30.75;36.23
71795;BME280;59641;45.188;5.712;2023-08-21T01:42:49;99594.88;;;30.75;36.35
71795;BME280;59641;45.188;5.712;2023-08-21T01:45:15;99595.19;;;30.73;36.65
71795;BME280;59641;45.188;5.712;2023-08-21T01:47:40;99596.00;;;30.74;36.53
71795;BME280;59641;45.188;5.712;2023-08-21T01:50:06;99595.19;;;30.73;36.84
71795;BME280;59641;45.188;5.712;2023-08-21T01:52:32;99598.78;;;30.74;36.83
71795;BME280;59641;45.188;5.712;2023-08-21T01:54:57;99604.31;;;30.74;36.32
71795;BME280;59641;45.188;5.712;2023-08-21T01:57:23;99604.22;;;30.70;36.34
71795;BME280;59641;45.188;5.712;2023-08-21T01:59:49;99606.53;;;30.68;36.44
71795;BME280;59641;45.188;5.712;2023-08-21T02:02:14;99606.44;;;30.65;36.80
71795;BME280;59641;45.188;5.712;2023-08-21T02:04:39;99604.00;;;30.63;36.64
71795;BME280;59641;45.188;5.712;2023-08-21T02:07:05;99609.06;;;30.61;36.89
71795;BME280;59641;45.188;5.712;2023-08-21T02:09:30;99611.63;;;30.54;36.63
71795;BME280;59641;45.188;5.712;2023-08-21T02:11:55;99611.53;;;30.50;36.51
71795;BME280;59641;45.188;5.712;2023-08-21T02:14:21;99607.81;;;30.46;36.70
71795;BME280;59641;45.188;5.712;2023-08-21T02:16:46;99605.06;;;30.46;37.00
71795;BME280;59641;45.188;5.712;2023-08-21T02:19:11;99610.13;;;30.44;36.90
71795;BME280;59641;45.188;5.712;2023-08-21T02:21:37;99610.94;;;30.45;36.92
71795;BME280;59641;45.188;5.712;2023-08-21T02:24:02;99613.69;;;30.45;36.95
71795;BME280;59641;45.188;5.712;2023-08-21T02:26:27;99615.66;;;30.44;37.10
71795;BME280;59641;45.188;5.712;2023-08-21T02:28:53;99612.56;;;30.46;37.31
71795;BME280;59641;45.188;5.712;2023-08-21T02:31:18;99616.13;;;30.46;36.87
71795;BME280;59641;45.188;5.712;2023-08-21T02:33:44;99616.94;;;30.47;37.22
71795;BME280;59641;45.188;5.712;2023-08-21T02:36:09;99618.09;;;30.46;37.07
71795;BME280;59641;45.188;5.712;2023-08-21T02:38:35;99613.38;;;30.46;37.36
71795;BME280;59641;45.188;5.712;2023-08-21T02:41:00;99618.09;;;30.46;37.13
71795;BME280;59641;45.188;5.712;2023-08-21T02:43:26;99618.34;;;30.41;37.55
71795;BME280;59641;45.188;5.712;2023-08-21T02:45:51;99618.22;;;30.37;37.16
71795;BME280;59641;45.188;5.712;2023-08-21T02:48:16;99612.69;;;30.37;37.37
71795;BME280;59641;45.188;5.712;2023-08-21T02:50:42;99615.81;;;30.35;37.44
71795;BME280;59641;45.188;5.712;2023-08-21T02:53:08;99613.84;;;30.36;37.72
71795;BME280;59641;45.188;5.712;2023-08-21T02:55:33;99613.84;;;30.36;37.38
71795;BME280;59641;45.188;5.712;2023-08-21T02:57:59;99610.28;;;30.35;37.80
71795;BME280;59641;45.188;5.712;2023-08-21T03:00:24;99617.75;;;30.35;37.69
71795;BME280;59641;45.188;5.712;2023-08-21T03:02:50;99616.94;;;30.34;37.17
71795;BME280;59641;45.188;5.712;2023-08-21T03:05:15;99619.25;;;30.32;37.16
71795;BME280;59641;45.188;5.712;2023-08-21T03:07:41;99619.25;;;30.32;37.60
71795;BME280;59641;45.188;5.712;2023-08-21T03:10:07;99614.50;;;30.33;36.98
71795;BME280;59641;45.188;5.712;2023-08-21T03:12:33;99623.50;;;30.30;37.47
71795;BME280;59641;45.188;5.712;2023-08-21T03:14:58;99619.16;;;30.29;37.61
71795;BME280;59641;45.188;5.712;2023-08-21T03:17:24;99619.81;;;30.26;37.65
71795;BME280;59641;45.188;5.712;2023-08-21T03:19:49;99617.38;;;30.24;37.06
71795;BME280;59641;45.188;5.712;2023-08-21T03:22:15;99620.16;;;30.24;37.50
71795;BME280;59641;45.188;5.712;2023-08-21T03:24:40;99624.88;;;30.24;37.45
71795;BME280;59641;45.188;5.712;2023-08-21T03:27:05;99620.47;;;30.23;37.20
71795;BME280;59641;45.188;5.712;2023-08-21T03:29:31;99620.47;;;30.23;37.08
71795;BME280;59641;45.188;5.712;2023-08-21T03:31:57;99624.06;;;30.23;37.07
71795;BME280;59641;45.188;5.712;2023-08-21T03:34:23;99624.06;;;30.23;37.28
71795;BME280;59641;45.188;5.712;2023-08-21T03:36:48;99623.63;;;30.21;37.15
71795;BME280;59641;45.188;5.712;2023-08-21T03:39:14;99617.25;;;30.21;37.15
71795;BME280;59641;45.188;5.712;2023-08-21T03:41:40;99623.16;;;30.19;37.15
71795;BME280;59641;45.188;5.712;2023-08-21T03:44:05;99632.94;;;30.17;37.16
71795;BME280;59641;45.188;5.712;2023-08-21T03:46:30;99629.72;;;30.14;37.61
71795;BME280;59641;45.188;5.712;2023-08-21T03:48:56;99627.28;;;30.13;37.57
71795;BME280;59641;45.188;5.712;2023-08-21T03:51:21;99635.94;;;30.11;37.73
71795;BME280;59641;45.188;5.712;2023-08-21T03:53:47;99637.09;;;30.10;37.74
71795;BME280;59641;45.188;5.712;2023-08-21T03:56:12;99630.28;;;30.08;37.80
71795;BME280;59641;45.188;5.712;2023-08-21T03:58:38;99637.78;;;30.07;37.93
71795;BME280;59641;45.188;5.712;2023-08-21T04:01:03;99625.44;;;30.05;37.86
71795;BME280;59641;45.188;5.712;2023-08-21T04:03:29;99636.50;;;30.05;37.75
71795;BME280;59641;45.188;5.712;2023-08-21T04:05:54;99628.88;;;30.02;37.68
71795;BME280;59641;45.188;5.712;2023-08-21T04:08:22;99635.25;;;30.02;38.05
71795;BME280;59641;45.188;5.712;2023-08-21T04:10:47;99640.78;;;30.02;37.80
71795;BME280;59641;45.188;5.712;2023-08-21T04:13:13;99641.91;;;30.01;37.58
71795;BME280;59641;45.188;5.712;2023-08-21T04:15:38;99636.38;;;30.01;37.99
71795;BME280;59641;45.188;5.712;2023-08-21T04:18:04;99651.00;;;30.02;37.65
71795;BME280;59641;45.188;5.712;2023-08-21T04:20:30;99644.69;;;30.01;37.71
71795;BME280;59641;45.188;5.712;2023-08-21T04:22:56;99644.69;;;30.01;37.86
71795;BME280;59641;45.188;5.712;2023-08-21T04:25:21;99652.66;;;30.03;37.89
71795;BME280;59641;45.188;5.712;2023-08-21T04:27:46;99646.78;;;30.04;37.98
71795;BME280;59641;45.188;5.712;2023-08-21T04:30:12;99654.72;;;30.06;37.58
71795;BME280;59641;45.188;5.712;2023-08-21T04:32:37;99656.34;;;30.07;37.58
71795;BME280;59641;45.188;5.712;2023-08-21T04:35:03;99659.91;;;30.07;37.87
71795;BME280;59641;45.188;5.712;2023-08-21T04:37:30;99654.03;;;30.09;37.53
71795;BME280;59641;45.188;5.712;2023-08-21T04:39:55;99649.66;;;30.08;37.72
71795;BME280;59641;45.188;5.712;2023-08-21T04:42:21;99660.72;;;30.08;37.60
71795;BME280;59641;45.188;5.712;2023-08-21T04:44:47;99665.09;;;30.09;37.31
71795;BME280;59641;45.188;5.712;2023-08-21T04:47:23;99665.09;;;30.09;37.37
71795;BME280;59641;45.188;5.712;2023-08-21T04:49:53;99670.19;;;30.07;37.73
71795;BME280;59641;45.188;5.712;2023-08-21T04:52:19;99672.81;;;30.03;37.30
71795;BME280;59641;45.188;5.712;2023-08-21T04:54:46;99678.69;;;30.02;37.36
71795;BME280;59641;45.188;5.712;2023-08-21T04:57:12;99677.41;;;29.99;37.47
71795;BME280;59641;45.188;5.712;2023-08-21T04:59:38;99682.94;;;29.99;37.90
71795;BME280;59641;45.188;5.712;2023-08-21T05:02:04;99689.97;;;29.97;37.83
71795;BME280;59641;45.188;5.712;2023-08-21T05:04:29;99694.59;;;29.92;37.57
71795;BME280;59641;45.188;5.712;2023-08-21T05:06:54;99687.78;;;29.90;37.89
71795;BME280;59641;45.188;5.712;2023-08-21T05:09:20;99701.94;;;29.88;37.79
71795;BME280;59641;45.188;5.712;2023-08-21T05:11:45;99700.66;;;29.86;38.00
71795;BME280;59641;45.188;5.712;2023-08-21T05:14:10;99704.56;;;29.85;37.78
71795;BME280;59641;45.188;5.712;2023-08-21T05:16:36;99711.25;;;29.84;37.73
71795;BME280;59641;45.188;5.712;2023-08-21T05:19:01;99715.53;;;29.81;38.10
71795;BME280;59641;45.188;5.712;2023-08-21T05:21:27;99719.44;;;29.80;38.26
71795;BME280;59641;45.188;5.712;2023-08-21T05:23:52;99718.13;;;29.78;38.15
71795;BME280;59641;45.188;5.712;2023-08-21T05:26:19;99713.78;;;29.77;37.86
71795;BME280;59641;45.188;5.712;2023-08-21T05:28:44;99722.41;;;29.75;37.77
71795;BME280;59641;45.188;5.712;2023-08-21T05:31:10;99727.94;;;29.75;37.81
71795;BME280;59641;45.188;5.712;2023-08-21T05:33:35;99722.41;;;29.75;38.15
71795;BME280;59641;45.188;5.712;2023-08-21T05:36:01;99722.75;;;29.73;37.74
71795;BME280;59641;45.188;5.712;2023-08-21T05:38:26;99721.13;;;29.72;38.06
71795;BME280;59641;45.188;5.712;2023-08-21T05:40:51;99719.63;;;29.75;37.67
71795;BME280;59641;45.188;5.712;2023-08-21T05:43:17;99724.03;;;29.76;37.51
71795;BME280;59641;45.188;5.712;2023-08-21T05:45:42;99731.84;;;29.74;37.93
71795;BME280;59641;45.188;5.712;2023-08-21T05:48:07;99731.84;;;29.74;37.76
71795;BME280;59641;45.188;5.712;2023-08-21T05:50:33;99731.84;;;29.74;37.77
71795;BME280;59641;45.188;5.712;2023-08-21T05:53:04;99738.06;;;29.71;37.47
71795;BME280;59641;45.188;5.712;2023-08-21T05:55:30;99737.59;;;29.69;37.90
71795;BME280;59641;45.188;5.712;2023-08-21T05:57:55;99733.19;;;29.68;37.97
71795;BME280;59641;45.188;5.712;2023-08-21T06:00:20;99731.28;;;29.68;37.68
71795;BME280;59641;45.188;5.712;2023-08-21T06:02:46;99732.88;;;29.69;37.53
71795;BME280;59641;45.188;5.712;2023-08-21T06:05:11;99738.88;;;29.71;37.99
71795;BME280;59641;45.188;5.712;2023-08-21T06:07:37;99737.25;;;29.70;37.88
71795;BME280;59641;45.188;5.712;2023-08-21T06:10:02;99742.78;;;29.70;37.75
71795;BME280;59641;45.188;5.712;2023-08-21T06:12:29;99744.72;;;29.70;38.05
71795;BME280;59641;45.188;5.712;2023-08-21T06:14:55;99745.91;;;29.69;37.87
71795;BME280;59641;45.188;5.712;2023-08-21T06:17:20;99745.91;;;29.69;37.88
71795;BME280;59641;45.188;5.712;2023-08-21T06:19:46;99745.09;;;29.68;38.25
71795;BME280;59641;45.188;5.712;2023-08-21T06:22:11;99744.25;;;29.68;37.95
71795;BME280;59641;45.188;5.712;2023-08-21T06:24:36;99745.09;;;29.68;38.05
71795;BME280;59641;45.188;5.712;2023-08-21T06:27:02;99752.56;;;29.68;37.85
71795;BME280;59641;45.188;5.712;2023-08-21T06:29:27;99751.75;;;29.67;38.12
71795;BME280;59641;45.188;5.712;2023-08-21T06:31:53;99750.63;;;29.68;38.21
71795;BME280;59641;45.188;5.712;2023-08-21T06:34:18;99751.44;;;29.69;38.00
71795;BME280;59641;45.188;5.712;2023-08-21T06:36:43;99751.91;;;29.71;38.22
71795;BME280;59641;45.188;5.712;2023-08-21T06:39:09;99747.16;;;29.71;37.86
71795;BME280;59641;45.188;5.712;2023-08-21T06:41:34;99747.28;;;29.75;37.99
71795;BME280;59641;45.188;5.712;2023-08-21T06:43:59;99745.81;;;29.78;37.99
71795;BME280;59641;45.188;5.712;2023-08-21T06:46:25;99746.28;;;29.80;38.07
71795;BME280;59641;45.188;5.712;2023-08-21T06:48:50;99743.97;;;29.82;37.88
71795;BME280;59641;45.188;5.712;2023-08-21T06:51:16;99751.94;;;29.83;38.19
71795;BME280;59641;45.188;5.712;2023-08-21T06:53:41;99752.75;;;29.84;38.06
71795;BME280;59641;45.188;5.712;2023-08-21T06:56:07;99748.81;;;29.85;38.35
71795;BME280;59641;45.188;5.712;2023-08-21T06:58:32;99749.31;;;29.87;38.65
71795;BME280;59641;45.188;5.712;2023-08-21T07:01:02;99752.53;;;29.89;38.67
71795;BME280;59641;45.188;5.712;2023-08-21T07:03:27;99747.47;;;29.91;38.34
71795;BME280;59641;45.188;5.712;2023-08-21T07:05:53;99749.56;;;29.94;38.69
71795;BME280;59641;45.188;5.712;2023-08-21T07:08:20;99746.13;;;29.97;38.29
71795;BME280;59641;45.188;5.712;2023-08-21T07:10:45;99747.41;;;30.00;38.54
71795;BME280;59641;45.188;5.712;2023-08-21T07:13:11;99745.91;;;30.02;38.30
71795;BME280;59641;45.188;5.712;2023-08-21T07:15:36;99749.94;;;30.05;38.55
71795;BME280;59641;45.188;5.712;2023-08-21T07:18:01;99744.53;;;30.08;38.63
71795;BME280;59641;45.188;5.712;2023-08-21T07:20:28;99742.25;;;30.10;38.46
71795;BME280;59641;45.188;5.712;2023-08-21T07:22:53;99744.66;;;30.12;38.15
71795;BME280;59641;45.188;5.712;2023-08-21T07:25:18;99744.31;;;30.13;38.13
71795;BME280;59641;45.188;5.712;2023-08-21T07:27:44;99745.25;;;30.18;38.22
71795;BME280;59641;45.188;5.712;2023-08-21T07:30:10;99734.19;;;30.18;38.01
71795;BME280;59641;45.188;5.712;2023-08-21T07:32:36;99732.59;;;30.17;38.62
71795;BME280;59641;45.188;5.712;2023-08-21T07:35:01;99745.25;;;30.18;38.41
71795;BME280;59641;45.188;5.712;2023-08-21T07:37:26;99734.97;;;30.18;38.57
71795;BME280;59641;45.188;5.712;2023-08-21T07:39:52;99741.00;;;30.20;38.57
71795;BME280;59641;45.188;5.712;2023-08-21T07:42:18;99738.22;;;30.20;38.64
71795;BME280;59641;45.188;5.712;2023-08-21T07:44:44;99736.06;;;30.26;38.73
71795;BME280;59641;45.188;5.712;2023-08-21T07:47:09;99729.88;;;30.29;38.70
71795;BME280;59641;45.188;5.712;2023-08-21T07:49:35;99724.78;;;30.31;38.56
71795;BME280;59641;45.188;5.712;2023-08-21T07:52:02;99727.66;;;30.34;38.46
71795;BME280;59641;45.188;5.712;2023-08-21T07:54:28;99726.19;;;30.37;38.75
71795;BME280;59641;45.188;5.712;2023-08-21T07:56:53;99727.44;;;30.40;38.59
71795;BME280;59641;45.188;5.712;2023-08-21T07:59:18;99727.13;;;30.41;38.06
71795;BME280;59641;45.188;5.712;2023-08-21T08:01:45;99723.19;;;30.42;38.28
71795;BME280;59641;45.188;5.712;2023-08-21T08:04:10;99716.97;;;30.45;38.21
71795;BME280;59641;45.188;5.712;2023-08-21T08:06:36;99721.81;;;30.48;38.51
71795;BME280;59641;45.188;5.712;2023-08-21T08:09:01;99726.31;;;30.53;38.55
71795;BME280;59641;45.188;5.712;2023-08-21T08:11:28;99713.38;;;30.57;38.22
71795;BME280;59641;45.188;5.712;2023-08-21T08:13:54;99714.31;;;30.61;38.15
71795;BME280;59641;45.188;5.712;2023-08-21T08:16:20;99710.50;;;30.66;38.14
71795;BME280;59641;45.188;5.712;2023-08-21T08:18:45;99703.13;;;30.70;38.38
71795;BME280;59641;45.188;5.712;2023-08-21T08:21:12;99704.03;;;30.74;37.90
71795;BME280;59641;45.188;5.712;2023-08-21T08:23:37;99706.47;;;30.75;37.79
71795;BME280;59641;45.188;5.712;2023-08-21T08:26:02;99705.75;;;30.78;37.99
71795;BME280;59641;45.188;5.712;2023-08-21T08:28:28;99706.22;;;30.81;37.95
71795;BME280;59641;45.188;5.712;2023-08-21T08:30:53;99696.44;;;30.83;37.92
71795;BME280;59641;45.188;5.712;2023-08-21T08:33:19;99699.34;;;30.87;38.06
71795;BME280;59641;45.188;5.712;2023-08-21T08:35:45;99695.06;;;30.89;37.74
71795;BME280;59641;45.188;5.712;2023-08-21T08:38:10;99690.44;;;30.93;37.85
71795;BME280;59641;45.188;5.712;2023-08-21T08:40:43;99685.81;;;30.97;37.13
71795;BME280;59641;45.188;5.712;2023-08-21T08:43:09;99687.44;;;30.98;37.72
71795;BME280;59641;45.188;5.712;2023-08-21T08:45:36;99676.44;;;31.02;37.51
71795;BME280;59641;45.188;5.712;2023-08-21T08:48:02;99678.97;;;31.07;37.29
71795;BME280;59641;45.188;5.712;2023-08-21T08:50:29;99674.34;;;31.11;36.68
71795;BME280;59641;45.188;5.712;2023-08-21T08:52:56;99670.63;;;31.19;36.69
71795;BME280;59641;45.188;5.712;2023-08-21T08:55:22;99675.13;;;31.24;36.97
71795;BME280;59641;45.188;5.712;2023-08-21T08:57:48;99668.19;;;31.30;36.77
71795;BME280;59641;45.188;5.712;2023-08-21T09:00:14;99663.97;;;31.36;36.24
71795;BME280;59641;45.188;5.712;2023-08-21T09:02:39;99668.16;;;31.42;36.44
71795;BME280;59641;45.188;5.712;2023-08-21T09:05:05;99660.31;;;31.45;36.11
71795;BME280;59641;45.188;5.712;2023-08-21T09:07:32;99660.84;;;31.50;36.25
71795;BME280;59641;45.188;5.712;2023-08-21T09:09:57;99660.59;;;31.55;36.33
71795;BME280;59641;45.188;5.712;2023-08-21T09:12:23;99655.94;;;31.59;36.05
71795;BME280;59641;45.188;5.712;2023-08-21T09:14:48;99653.72;;;31.65;36.32
71795;BME280;59641;45.188;5.712;2023-08-21T09:17:15;99653.50;;;31.70;36.27
71795;BME280;59641;45.188;5.712;2023-08-21T09:19:40;99649.28;;;31.76;35.54
71795;BME280;59641;45.188;5.712;2023-08-21T09:22:14;99645.50;;;31.84;35.39
71795;BME280;59641;45.188;5.712;2023-08-21T09:24:40;99638.47;;;31.87;35.44
71795;BME280;59641;45.188;5.712;2023-08-21T09:27:18;99637.84;;;31.94;35.33
71795;BME280;59641;45.188;5.712;2023-08-21T09:29:46;99639.94;;;31.97;34.94
71795;BME280;59641;45.188;5.712;2023-08-21T09:32:11;99632.88;;;31.99;34.61
71795;BME280;59641;45.188;5.712;2023-08-21T09:34:37;99623.03;;;32.02;34.97
71795;BME280;59641;45.188;5.712;2023-08-21T09:37:06;99629.44;;;32.06;34.41
71795;BME280;59641;45.188;5.712;2023-08-21T09:39:36;99625.06;;;32.05;33.98
71795;BME280;59641;45.188;5.712;2023-08-21T09:42:08;99624.00;;;32.10;34.50
71795;BME280;59641;45.188;5.712;2023-08-21T09:44:41;99627.22;;;32.12;33.95
71795;BME280;59641;45.188;5.712;2023-08-21T09:47:10;99607.88;;;32.15;33.62
71795;BME280;59641;45.188;5.712;2023-08-21T09:49:37;99608.78;;;32.19;33.51
71795;BME280;59641;45.188;5.712;2023-08-21T09:52:06;99612.06;;;32.25;33.47
71795;BME280;59641;45.188;5.712;2023-08-21T09:54:33;99603.13;;;32.32;34.04
71795;BME280;59641;45.188;5.712;2023-08-21T09:57:03;99599.25;;;32.36;33.37
71795;BME280;59641;45.188;5.712;2023-08-21T09:59:30;99601.41;;;32.43;33.67
71795;BME280;59641;45.188;5.712;2023-08-21T10:01:58;99590.75;;;32.45;32.71
71795;BME280;59641;45.188;5.712;2023-08-21T10:04:25;99597.16;;;32.49;32.99
71795;BME280;59641;45.188;5.712;2023-08-21T10:06:52;99592.19;;;32.55;32.80
71795;BME280;59641;45.188;5.712;2023-08-21T10:09:21;99597.91;;;32.62;32.53
71795;BME280;59641;45.188;5.712;2023-08-21T10:11:47;99593.66;;;32.68;32.23
71795;BME280;59641;45.188;5.712;2023-08-21T10:14:13;99588.72;;;32.77;32.04
71795;BME280;59641;45.188;5.712;2023-08-21T10:16:39;99578.94;;;32.83;32.64
71795;BME280;59641;45.188;5.712;2023-08-21T10:19:04;99579.88;;;32.91;32.62
71795;BME280;59641;45.188;5.712;2023-08-21T10:21:37;99582.38;;;32.96;32.26
71795;BME280;59641;45.188;5.712;2023-08-21T10:24:02;99576.50;;;33.01;31.84
71795;BME280;59641;45.188;5.712;2023-08-21T10:26:28;99579.47;;;33.08;31.58
71795;BME280;59641;45.188;5.712;2023-08-21T10:28:54;99580.41;;;33.16;32.14
71795;BME280;59641;45.188;5.712;2023-08-21T10:33:55;99567.16;;;33.29;31.58
71795;BME280;59641;45.188;5.712;2023-08-21T10:39:28;99562.81;;;33.51;31.82
71795;BME280;59641;45.188;5.712;2023-08-21T10:42:05;99550.22;;;33.57;31.32
71795;BME280;59641;45.188;5.712;2023-08-21T10:44:47;99553.63;;;33.70;31.60
71795;BME280;59641;45.188;5.712;2023-08-21T10:47:26;99548.56;;;33.76;31.52
71795;BME280;59641;45.188;5.712;2023-08-21T10:49:58;99549.91;;;33.85;31.31
71795;BME280;59641;45.188;5.712;2023-08-21T10:54:52;99536.34;;;34.07;31.25
71795;BME280;59641;45.188;5.712;2023-08-21T10:57:18;99540.47;;;34.17;31.19
71795;BME280;59641;45.188;5.712;2023-08-21T10:59:57;99537.47;;;34.29;31.09
71795;BME280;59641;45.188;5.712;2023-08-21T11:02:24;99537.59;;;34.36;31.02
71795;BME280;59641;45.188;5.712;2023-08-21T11:04:50;99533.34;;;34.46;30.78
71795;BME280;59641;45.188;5.712;2023-08-21T11:07:16;99523.09;;;34.53;31.19
71795;BME280;59641;45.188;5.712;2023-08-21T11:09:42;99522.06;;;34.62;30.40
71795;BME280;59641;45.188;5.712;2023-08-21T11:12:09;99528.94;;;34.71;31.02
71795;BME280;59641;45.188;5.712;2023-08-21T11:14:35;99519.47;;;34.79;30.67
71795;BME280;59641;45.188;5.712;2023-08-21T11:17:02;99519.56;;;34.87;30.69
71795;BME280;59641;45.188;5.712;2023-08-21T11:19:30;99516.50;;;34.95;30.78
71795;BME280;59641;45.188;5.712;2023-08-21T11:21:55;99521.38;;;35.06;30.74
71795;BME280;59641;45.188;5.712;2023-08-21T11:24:21;99519.13;;;35.15;30.89
71795;BME280;59641;45.188;5.712;2023-08-21T11:26:47;99509.63;;;35.23;30.75
71795;BME280;59641;45.188;5.712;2023-08-21T11:29:12;99512.91;;;35.32;30.87
71795;BME280;59641;45.188;5.712;2023-08-21T11:31:38;99507.44;;;35.43;30.67
71795;BME280;59641;45.188;5.712;2023-08-21T11:34:04;99503.91;;;35.50;31.18
71795;BME280;59641;45.188;5.712;2023-08-21T11:36:29;99502.84;;;35.61;30.92
71795;BME280;59641;45.188;5.712;2023-08-21T11:39:02;99504.13;;;35.71;31.06
71795;BME280;59641;45.188;5.712;2023-08-21T11:41:28;99510.19;;;35.80;31.17
71795;BME280;59641;45.188;5.712;2023-08-21T11:44:02;99491.13;;;35.90;30.93
71795;BME280;59641;45.188;5.712;2023-08-21T11:46:28;99491.59;;;36.02;30.96
71795;BME280;59641;45.188;5.712;2023-08-21T11:48:53;99477.31;;;36.11;31.26
71795;BME280;59641;45.188;5.712;2023-08-21T11:51:19;99479.78;;;36.23;31.14
71795;BME280;59641;45.188;5.712;2023-08-21T11:53:47;99474.25;;;36.34;31.35
71795;BME280;59641;45.188;5.712;2023-08-21T11:56:14;99477.47;;;36.43;30.94
71795;BME280;59641;45.188;5.712;2023-08-21T11:58:42;99467.94;;;36.52;31.12
71795;BME280;59641;45.188;5.712;2023-08-21T12:01:07;99470.41;;;36.60;31.36
71795;BME280;59641;45.188;5.712;2023-08-21T12:03:37;99464.84;;;36.71;30.81
71795;BME280;59641;45.188;5.712;2023-08-21T12:06:11;99468.09;;;36.80;30.76
71795;BME280;59641;45.188;5.712;2023-08-21T12:08:38;99463.69;;;36.86;30.26
71795;BME280;59641;45.188;5.712;2023-08-21T12:11:04;99458.91;;;36.94;30.35
71795;BME280;59641;45.188;5.712;2023-08-21T12:13:29;99452.97;;;37.06;30.00
71795;BME280;59641;45.188;5.712;2023-08-21T12:15:55;99451.00;;;37.14;30.14
71795;BME280;59641;45.188;5.712;2023-08-21T12:18:20;99448.59;;;37.23;30.16
71795;BME280;59641;45.188;5.712;2023-08-21T12:20:46;99459.78;;;37.30;30.10
71795;BME280;59641;45.188;5.712;2023-08-21T12:23:11;99440.63;;;37.36;29.78
71795;BME280;59641;45.188;5.712;2023-08-21T12:25:36;99442.22;;;37.44;29.77
71795;BME280;59641;45.188;5.712;2023-08-21T12:28:02;99435.81;;;37.51;29.97
71795;BME280;59641;45.188;5.712;2023-08-21T12:30:27;99428.63;;;37.57;29.94
71795;BME280;59641;45.188;5.712;2023-08-21T12:32:53;99426.66;;;37.65;29.73
71795;BME280;59641;45.188;5.712;2023-08-21T12:35:18;99425.03;;;37.71;29.72
71795;BME280;59641;45.188;5.712;2023-08-21T12:37:43;99419.03;;;37.72;29.59
71795;BME280;59641;45.188;5.712;2023-08-21T12:40:09;99420.63;;;37.77;29.36
71795;BME280;59641;45.188;5.712;2023-08-21T12:42:34;99414.22;;;37.80;29.79
71795;BME280;59641;45.188;5.712;2023-08-21T12:45:00;99411.81;;;37.82;29.54
71795;BME280;59641;45.188;5.712;2023-08-21T12:47:25;99422.22;;;37.82;29.62
71795;BME280;59641;45.188;5.712;2023-08-21T12:49:51;99407.81;;;37.76;29.67
71795;BME280;59641;45.188;5.712;2023-08-21T12:52:16;99413.41;;;37.76;29.69
71795;BME280;59641;45.188;5.712;2023-08-21T12:54:41;99409.41;;;37.73;29.43
71795;BME280;59641;45.188;5.712;2023-08-21T12:57:08;99410.22;;;37.70;29.85
71795;BME280;59641;45.188;5.712;2023-08-21T12:59:34;99400.66;;;37.68;29.51
71795;BME280;59641;45.188;5.712;2023-08-21T13:01:59;99404.25;;;37.65;29.60
71795;BME280;59641;45.188;5.712;2023-08-21T13:04:28;99398.66;;;37.61;29.61
71795;BME280;59641;45.188;5.712;2023-08-21T13:06:54;99392.25;;;37.61;29.68